createdAt,value
2023-01-09T00:01:35.081Z,54.18
2023-01-09T00:04:02.229Z,54.01
2023-01-09T00:06:29.324Z,53.94
2023-01-09T00:08:56.279Z,54.07
2023-01-09T00:11:23.562Z,54.11
2023-01-09T00:13:50.698Z,54.15
2023-01-09T00:16:17.871Z,53.99
2023-01-09T00:18:44.891Z,53.94
2023-01-09T00:21:12.638Z,53.85
2023-01-09T00:23:39.541Z,53.81
2023-01-09T00:26:06.562Z,53.77
2023-01-09T00:28:34.274Z,53.76
2023-01-09T00:31:02.129Z,53.71
2023-01-09T00:33:30.466Z,53.63
2023-01-09T00:35:57.503Z,53.75
2023-01-09T00:38:24.443Z,53.75
2023-01-09T00:40:51.534Z,53.65
2023-01-09T00:43:18.995Z,53.54
2023-01-09T00:45:46.001Z,53.32
2023-01-09T00:48:15.016Z,53.28
2023-01-09T00:50:42.157Z,53.35
2023-01-09T00:53:19.831Z,53.25
2023-01-09T00:55:46.837Z,53.30
2023-01-09T00:58:13.762Z,53.38
2023-01-09T01:00:40.928Z,53.44
2023-01-09T01:03:08.083Z,53.27
2023-01-09T01:05:53.821Z,53.17
2023-01-09T01:08:21.022Z,53.09
2023-01-09T01:10:48.031Z,53.15
2023-01-09T01:13:15.212Z,53.14
2023-01-09T01:15:43.434Z,52.95
2023-01-09T01:18:11.243Z,52.82
2023-01-09T01:20:41.122Z,52.97
2023-01-09T01:23:08.203Z,52.95
2023-01-09T01:25:39.483Z,52.78
2023-01-09T01:28:06.849Z,52.72
2023-01-09T01:30:34.008Z,52.67
2023-01-09T01:33:00.832Z,52.63
2023-01-09T01:35:27.989Z,52.63
2023-01-09T01:37:55.170Z,52.40
2023-01-09T01:40:22.378Z,52.38
2023-01-09T01:42:51.111Z,52.37
2023-01-09T01:45:19.745Z,52.37
2023-01-09T01:47:49.667Z,52.45
2023-01-09T01:50:31.929Z,52.40
2023-01-09T01:53:20.322Z,52.19
2023-01-09T01:56:01.967Z,52.02
2023-01-09T01:58:28.911Z,52.07
2023-01-09T02:00:55.983Z,52.06
2023-01-09T02:03:25.545Z,51.88
2023-01-09T02:05:52.566Z,51.91
2023-01-09T02:08:19.675Z,51.93
2023-01-09T02:10:46.619Z,51.96
2023-01-09T02:13:13.841Z,51.99
2023-01-09T02:16:00.000Z,52.08
2023-01-09T02:18:35.527Z,52.29
2023-01-09T02:21:41.106Z,52.49
2023-01-09T02:24:22.941Z,52.52
2023-01-09T02:27:21.450Z,52.62
2023-01-09T02:30:25.522Z,52.78
2023-01-09T02:32:52.367Z,53.16
2023-01-09T02:35:42.196Z,53.34
2023-01-09T02:38:25.330Z,53.65
2023-01-09T02:40:52.562Z,53.91
2023-01-09T02:43:19.387Z,54.24
2023-01-09T02:45:46.299Z,54.88
2023-01-09T02:48:13.422Z,55.20
2023-01-09T02:50:54.330Z,55.47
2023-01-09T02:53:39.998Z,55.70
2023-01-09T02:56:41.521Z,56.03
2023-01-09T02:59:19.336Z,56.37
2023-01-09T03:02:16.144Z,56.61
2023-01-09T03:04:42.885Z,56.81
2023-01-09T03:07:23.066Z,56.96
2023-01-09T03:09:50.645Z,57.19
2023-01-09T03:12:19.111Z,57.72
2023-01-09T03:14:48.492Z,58.10
2023-01-09T03:17:25.522Z,58.10
2023-01-09T03:19:53.998Z,57.92
2023-01-09T03:22:21.033Z,57.93
2023-01-09T03:24:48.175Z,58.03
2023-01-09T03:27:15.207Z,58.07
2023-01-09T03:29:42.164Z,58.24
2023-01-09T03:32:09.065Z,58.46
2023-01-09T03:34:36.165Z,58.52
2023-01-09T03:37:05.055Z,58.59
2023-01-09T03:39:32.555Z,58.90
2023-01-09T03:41:59.677Z,59.17
2023-01-09T03:44:26.670Z,59.38
2023-01-09T03:46:53.496Z,59.63
2023-01-09T03:49:21.845Z,59.88
2023-01-09T03:51:49.064Z,60.20
2023-01-09T03:54:15.996Z,60.48
2023-01-09T03:56:43.172Z,60.74
2023-01-09T03:59:10.054Z,60.96
2023-01-09T04:01:37.174Z,61.27
2023-01-09T04:04:04.662Z,61.44
2023-01-09T04:06:31.687Z,61.63
2023-01-09T04:08:58.725Z,61.85
2023-01-09T04:11:25.858Z,61.79
2023-01-09T04:13:52.842Z,61.78
2023-01-09T04:16:19.873Z,61.84
2023-01-09T04:18:46.924Z,61.73
2023-01-09T04:21:13.985Z,61.66
2023-01-09T04:23:41.125Z,61.85
2023-01-09T04:26:08.200Z,61.73
2023-01-09T04:28:35.096Z,61.76
2023-01-09T04:31:02.882Z,62.36
2023-01-09T04:33:29.818Z,62.97
2023-01-09T04:35:56.712Z,63.17
2023-01-09T04:38:23.753Z,63.22
2023-01-09T04:40:50.743Z,63.16
2023-01-09T04:43:17.687Z,63.19
2023-01-09T04:45:44.754Z,63.26
2023-01-09T04:48:12.104Z,63.45
2023-01-09T04:50:38.949Z,63.70
2023-01-09T04:53:06.982Z,63.91
2023-01-09T04:55:34.027Z,64.03
2023-01-09T04:58:01.169Z,63.97
2023-01-09T05:00:28.238Z,63.88
2023-01-09T05:02:55.528Z,63.76
2023-01-09T05:05:22.484Z,63.36
2023-01-09T05:07:49.365Z,63.15
2023-01-09T05:10:16.423Z,63.00
2023-01-09T05:12:43.272Z,62.72
2023-01-09T05:15:10.697Z,62.57
2023-01-09T05:17:37.735Z,62.57
2023-01-09T05:20:04.923Z,62.46
2023-01-09T05:22:31.957Z,62.34
2023-01-09T05:25:00.430Z,62.34
2023-01-09T05:27:27.662Z,62.27
2023-01-09T05:29:54.637Z,62.32
2023-01-09T05:32:21.641Z,62.35
2023-01-09T05:34:48.684Z,62.39
2023-01-09T05:37:15.634Z,62.47
2023-01-09T05:39:42.692Z,62.50
2023-01-09T05:42:09.660Z,62.57
2023-01-09T05:44:36.704Z,62.61
2023-01-09T05:47:03.714Z,62.54
2023-01-09T05:49:30.553Z,62.35
2023-01-09T05:51:57.626Z,62.25
2023-01-09T05:54:24.880Z,62.16
2023-01-09T05:56:51.868Z,62.05
2023-01-09T05:59:18.794Z,61.99
2023-01-09T06:01:46.071Z,61.85
2023-01-09T06:04:13.348Z,61.61
2023-01-09T06:06:41.119Z,61.48
2023-01-09T06:09:08.213Z,61.58
2023-01-09T06:11:35.921Z,61.62
2023-01-09T06:14:02.934Z,61.56
2023-01-09T06:16:30.122Z,61.69
2023-01-09T06:18:57.173Z,61.71
2023-01-09T06:21:24.241Z,61.70
2023-01-09T06:23:51.464Z,61.94
2023-01-09T06:26:18.349Z,62.03
2023-01-09T06:28:45.297Z,62.05
2023-01-09T06:31:13.472Z,62.15
2023-01-09T06:33:40.782Z,62.34
2023-01-09T06:36:08.188Z,62.32
2023-01-09T06:38:36.520Z,62.25
2023-01-09T06:41:03.380Z,62.17
2023-01-09T06:43:30.343Z,62.22
2023-01-09T06:45:57.866Z,62.14
2023-01-09T06:48:27.724Z,62.21
2023-01-09T06:50:54.763Z,62.06
2023-01-09T06:53:21.651Z,62.09
2023-01-09T06:55:48.682Z,62.04
2023-01-09T06:58:15.573Z,62.09
2023-01-09T07:00:42.730Z,62.21
2023-01-09T07:03:10.334Z,62.28
2023-01-09T07:05:42.029Z,62.46
2023-01-09T07:08:09.471Z,62.61
2023-01-09T07:10:36.409Z,62.77
2023-01-09T07:13:03.418Z,62.91
2023-01-09T07:15:30.587Z,63.08
2023-01-09T07:17:57.420Z,63.13
2023-01-09T07:20:24.556Z,63.16
2023-01-09T07:22:51.471Z,63.03
2023-01-09T07:25:18.465Z,63.00
2023-01-09T07:27:45.714Z,62.87
2023-01-09T07:30:13.310Z,62.99
2023-01-09T07:32:41.362Z,63.01
2023-01-09T07:35:09.312Z,63.11
2023-01-09T07:37:36.248Z,63.16
2023-01-09T07:40:03.919Z,63.23
2023-01-09T07:42:31.007Z,63.42
2023-01-09T07:44:58.074Z,63.71
2023-01-09T07:47:25.235Z,63.85
2023-01-09T07:49:52.112Z,63.91
2023-01-09T07:52:19.033Z,63.99
2023-01-09T07:54:45.971Z,64.12
2023-01-09T07:57:12.782Z,64.14
2023-01-09T07:59:39.780Z,64.10
2023-01-09T08:02:07.366Z,64.02
2023-01-09T08:04:34.417Z,64.04
2023-01-09T08:07:03.385Z,64.04
2023-01-09T08:09:30.631Z,64.08
2023-01-09T08:11:57.780Z,64.14
2023-01-09T08:14:24.832Z,64.01
2023-01-09T08:16:51.817Z,64.02
2023-01-09T08:19:18.960Z,64.05
2023-01-09T08:21:45.976Z,63.95
2023-01-09T08:24:12.801Z,63.98
2023-01-09T08:26:39.722Z,64.07
2023-01-09T08:29:06.663Z,64.02
2023-01-09T08:31:33.720Z,63.99
2023-01-09T08:34:00.601Z,63.92
2023-01-09T08:36:27.419Z,64.05
2023-01-09T08:38:54.699Z,63.74
2023-01-09T08:41:40.505Z,63.58
2023-01-09T08:44:26.248Z,63.41
2023-01-09T08:47:08.619Z,63.55
2023-01-09T08:49:36.965Z,63.38
2023-01-09T08:52:04.804Z,63.40
2023-01-09T08:54:31.894Z,63.44
2023-01-09T08:56:58.785Z,63.31
2023-01-09T08:59:25.784Z,63.20
2023-01-09T09:01:53.189Z,63.31
2023-01-09T09:04:20.255Z,63.36
2023-01-09T09:06:47.395Z,63.44
2023-01-09T09:09:14.465Z,63.56
2023-01-09T09:11:41.382Z,63.80
2023-01-09T09:14:27.069Z,63.87
2023-01-09T09:16:54.301Z,64.06
2023-01-09T09:19:21.260Z,63.94
2023-01-09T09:21:48.465Z,63.86
2023-01-09T09:24:15.536Z,63.67
2023-01-09T09:26:44.484Z,63.76
2023-01-09T09:29:11.817Z,63.86
2023-01-09T09:31:38.996Z,63.71
2023-01-09T09:34:06.568Z,63.84
2023-01-09T09:36:33.584Z,63.94
2023-01-09T09:39:02.700Z,63.99
2023-01-09T09:42:00.949Z,64.21
2023-01-09T09:44:54.622Z,64.40
2023-01-09T09:47:43.641Z,64.70
2023-01-09T09:53:44.169Z,65.41
2023-01-09T09:56:12.455Z,65.25
2023-01-09T09:58:41.328Z,65.22
2023-01-09T10:01:08.774Z,65.40
2023-01-09T10:03:42.402Z,65.48
2023-01-09T10:06:13.349Z,65.45
2023-01-09T10:09:17.855Z,65.64
2023-01-09T10:11:49.868Z,65.87
2023-01-09T10:14:24.385Z,65.90
2023-01-09T10:17:36.441Z,66.08
2023-01-09T10:20:22.023Z,66.21
2023-01-09T10:23:01.150Z,66.33
2023-01-09T10:25:37.219Z,66.55
2023-01-09T10:28:18.518Z,66.67
2023-01-09T10:30:48.571Z,66.86
2023-01-09T10:33:46.785Z,66.81
2023-01-09T10:36:26.841Z,66.81
2023-01-09T10:38:55.303Z,66.80
2023-01-09T10:41:34.979Z,66.83
2023-01-09T10:44:37.531Z,66.87
2023-01-09T10:47:19.136Z,66.87
2023-01-09T10:49:48.434Z,67.04
2023-01-09T10:52:20.700Z,67.16
2023-01-09T10:54:56.360Z,67.34
2023-01-09T10:57:42.202Z,67.10
2023-01-09T11:00:15.760Z,67.10
2023-01-09T11:02:42.690Z,67.19
2023-01-09T11:05:14.255Z,67.23
2023-01-09T11:07:42.415Z,67.33
2023-01-09T11:10:12.008Z,67.51
2023-01-09T11:12:39.384Z,67.47
2023-01-09T11:15:20.911Z,67.53
2023-01-09T11:17:48.218Z,67.65
2023-01-09T11:20:17.104Z,67.69
2023-01-09T11:22:47.384Z,67.70
2023-01-09T11:25:15.654Z,67.65
2023-01-09T11:27:42.662Z,67.40
2023-01-09T11:30:09.809Z,67.47
2023-01-09T11:32:36.775Z,67.43
2023-01-09T11:35:34.805Z,67.49
2023-01-09T11:38:20.144Z,67.47
2023-01-09T11:41:03.234Z,67.40
2023-01-09T11:43:38.368Z,67.49
2023-01-09T11:46:07.359Z,67.39
2023-01-09T11:48:38.413Z,67.47
2023-01-09T11:51:16.197Z,67.61
2023-01-09T11:53:52.259Z,67.40
2023-01-09T11:56:19.119Z,67.23
2023-01-09T11:58:46.002Z,67.32
2023-01-09T12:01:24.968Z,67.29
2023-01-09T12:04:11.813Z,67.36
2023-01-09T12:06:55.005Z,67.55
2023-01-09T12:09:55.235Z,67.33
2023-01-09T12:12:25.253Z,67.28
2023-01-09T12:15:09.944Z,67.32
2023-01-09T12:17:47.507Z,67.46
2023-01-09T12:20:51.934Z,67.55
2023-01-09T12:23:31.680Z,67.50
2023-01-09T12:26:04.662Z,67.42
2023-01-09T12:28:40.209Z,67.56
2023-01-09T12:31:32.279Z,67.63
2023-01-09T12:34:08.711Z,67.56
2023-01-09T12:36:55.063Z,67.53
2023-01-09T12:39:43.254Z,67.40
2023-01-09T12:42:22.692Z,67.40
2023-01-09T12:44:51.879Z,67.48
2023-01-09T12:47:40.857Z,67.63
2023-01-09T12:50:10.830Z,67.70
2023-01-09T14:07:28.685Z,67.49
2023-01-09T14:10:04.180Z,66.37
2023-01-09T14:12:32.770Z,66.33
2023-01-09T14:15:01.462Z,66.41
2023-01-09T14:17:36.437Z,66.54
2023-01-09T14:20:08.572Z,66.56
2023-01-09T14:22:45.535Z,66.69
2023-01-09T14:25:26.763Z,66.84
2023-01-09T14:27:53.938Z,67.01
2023-01-09T14:30:26.971Z,67.23
2023-01-09T14:33:16.475Z,67.30
2023-01-09T14:36:14.874Z,67.34
2023-01-09T14:38:52.265Z,67.58
2023-01-09T14:41:20.420Z,67.71
2023-01-09T14:43:53.286Z,67.92
2023-01-09T14:46:19.980Z,68.32
2023-01-09T14:49:34.925Z,68.46
2023-01-09T14:52:05.609Z,68.52
2023-01-09T14:54:37.577Z,68.41
2023-01-09T14:57:25.506Z,68.46
2023-01-09T15:00:03.022Z,68.45
2023-01-09T15:02:35.049Z,68.41
2023-01-09T15:05:21.931Z,68.37
2023-01-09T15:07:50.092Z,68.43
2023-01-09T15:10:22.951Z,68.22
2023-01-09T15:12:51.381Z,68.32
2023-01-09T15:15:18.534Z,68.38
2023-01-09T15:17:49.039Z,68.31
2023-01-09T15:20:18.376Z,68.47
2023-01-09T15:22:51.177Z,68.23
2023-01-09T15:25:45.138Z,67.98
2023-01-09T15:28:39.997Z,67.82
2023-01-09T15:31:20.405Z,67.56
2023-01-09T15:33:47.407Z,67.58
2023-01-09T15:36:24.910Z,67.56
2023-01-09T15:38:52.456Z,67.47
2023-01-09T15:41:42.650Z,67.27
2023-01-09T15:44:25.630Z,67.23
2023-01-09T15:46:56.047Z,67.10
2023-01-09T15:49:22.742Z,67.10
2023-01-09T15:51:49.661Z,67.16
2023-01-09T15:54:26.779Z,67.16
2023-01-09T15:56:53.914Z,66.93
2023-01-09T15:59:26.395Z,66.72
2023-01-09T16:02:19.331Z,66.80
2023-01-09T16:04:47.006Z,66.85
2023-01-09T16:07:15.601Z,66.68
2023-01-09T16:09:44.895Z,66.51
2023-01-09T16:12:22.830Z,66.50
2023-01-09T16:14:54.833Z,66.50
2023-01-09T16:17:25.794Z,66.38
2023-01-09T16:19:57.554Z,66.26
2023-01-09T16:22:31.177Z,66.28
2023-01-09T16:25:00.049Z,66.12
2023-01-09T16:27:33.472Z,66.14
2023-01-09T16:30:04.516Z,66.19
2023-01-09T16:32:36.832Z,66.20
2023-01-09T16:35:06.497Z,66.02
2023-01-09T16:37:33.597Z,65.80
2023-01-09T16:40:22.583Z,65.54
2023-01-09T16:42:59.861Z,65.34
2023-01-09T16:45:37.549Z,65.16
2023-01-09T16:48:15.383Z,65.08
2023-01-09T16:50:44.119Z,64.98
2023-01-09T16:53:23.454Z,64.91
2023-01-09T16:55:50.566Z,64.80
2023-01-09T16:58:28.148Z,64.65
2023-01-09T17:00:56.143Z,64.75
2023-01-09T17:03:24.168Z,64.68
2023-01-09T17:05:52.755Z,64.43
2023-01-09T17:08:24.828Z,64.30
2023-01-09T17:10:52.277Z,64.20
2023-01-09T17:13:19.214Z,64.05
2023-01-09T17:15:46.471Z,63.88
2023-01-09T17:18:19.056Z,63.70
2023-01-09T17:20:47.642Z,63.59
2023-01-09T17:23:15.508Z,63.23
2023-01-09T17:26:01.492Z,63.12
2023-01-09T17:28:35.232Z,62.95
2023-01-09T17:31:05.436Z,62.76
2023-01-09T17:33:32.781Z,62.76
2023-01-09T17:36:01.459Z,62.65
2023-01-09T17:38:28.305Z,62.61
2023-01-09T17:40:55.382Z,62.44
2023-01-09T17:43:22.237Z,62.47
2023-01-09T17:45:49.536Z,62.62
2023-01-09T17:48:18.522Z,62.58
2023-01-09T17:51:58.825Z,62.72
2023-01-09T17:54:25.672Z,62.21
2023-01-09T17:56:55.091Z,61.82
2023-01-09T17:59:22.117Z,61.58
2023-01-09T18:01:51.316Z,61.42
2023-01-09T18:04:18.360Z,61.08
2023-01-09T18:06:45.318Z,60.99
2023-01-09T18:09:17.316Z,60.65
2023-01-09T18:11:48.621Z,60.41
2023-01-09T18:14:15.675Z,60.31
2023-01-09T18:16:44.303Z,60.15
2023-01-09T18:19:11.295Z,59.91
2023-01-09T18:21:38.243Z,59.69
2023-01-09T18:24:06.004Z,59.35
2023-01-09T18:26:32.955Z,59.21
2023-01-09T18:29:00.340Z,59.19
2023-01-09T18:31:28.148Z,58.89
2023-01-09T18:33:56.753Z,58.70
2023-01-09T18:36:30.113Z,58.82
2023-01-09T18:38:58.658Z,58.80
2023-01-09T18:41:25.720Z,58.48
2023-01-09T18:43:54.065Z,58.22
2023-01-09T18:46:24.717Z,58.18
2023-01-09T18:48:55.603Z,58.01
2023-01-09T18:51:22.901Z,57.85
2023-01-09T18:53:50.061Z,57.71
2023-01-09T18:56:17.774Z,57.58
2023-01-09T18:58:45.058Z,57.66
2023-01-09T19:01:12.639Z,57.58
2023-01-09T19:03:39.804Z,57.23
2023-01-09T19:06:07.121Z,56.97
2023-01-09T19:08:34.989Z,56.85
2023-01-09T19:11:02.149Z,56.47
2023-01-09T19:13:32.971Z,56.41
2023-01-09T19:16:00.181Z,56.10
2023-01-09T19:18:27.910Z,55.91
2023-01-09T19:20:55.153Z,55.96
2023-01-09T19:23:24.856Z,55.83
2023-01-09T19:25:52.933Z,55.74
2023-01-09T19:28:20.742Z,55.44
2023-01-09T19:30:47.727Z,55.36
2023-01-09T19:33:14.851Z,55.26
2023-01-09T19:35:41.847Z,55.19
2023-01-09T19:38:08.877Z,55.04
2023-01-09T19:40:36.125Z,54.99
2023-01-09T19:43:03.072Z,54.99
2023-01-09T19:45:30.088Z,54.82
2023-01-09T19:47:57.064Z,54.47
2023-01-09T19:50:24.010Z,54.41
2023-01-09T19:52:51.166Z,54.23
2023-01-09T19:55:18.121Z,54.09
2023-01-09T19:57:45.300Z,54.05
2023-01-09T20:00:15.208Z,53.83
2023-01-09T20:02:42.560Z,53.59
2023-01-09T20:05:11.501Z,53.46
2023-01-09T20:07:38.429Z,53.38
2023-01-09T20:10:05.863Z,52.99
2023-01-09T20:12:32.867Z,53.03
2023-01-09T20:14:59.719Z,53.23
2023-01-09T20:17:26.599Z,53.19
2023-01-09T20:19:53.505Z,53.04
2023-01-09T20:22:20.562Z,52.86
2023-01-09T20:24:47.599Z,52.76
2023-01-09T20:27:14.414Z,52.70
2023-01-09T20:29:41.487Z,52.72
2023-01-09T20:32:10.066Z,52.47
2023-01-09T20:34:38.854Z,52.17
2023-01-09T20:37:05.837Z,52.04
2023-01-09T20:39:32.749Z,51.82
2023-01-09T20:42:00.004Z,51.75
2023-01-09T20:44:26.942Z,51.61
2023-01-09T20:46:53.888Z,51.32
2023-01-09T20:49:21.146Z,51.08
2023-01-09T20:51:50.253Z,51.19
2023-01-09T20:54:17.753Z,50.96
2023-01-09T20:56:46.998Z,50.52
2023-01-09T20:59:17.899Z,50.48
2023-01-09T21:01:44.895Z,50.37
2023-01-09T21:04:11.836Z,49.95
2023-01-09T21:06:38.852Z,49.75
2023-01-09T21:09:06.021Z,49.85
2023-01-09T21:11:32.938Z,49.51
2023-01-09T21:14:00.135Z,49.50
2023-01-09T21:16:27.134Z,49.36
2023-01-09T21:18:54.343Z,49.43
2023-01-09T21:21:27.768Z,49.38
2023-01-09T21:23:56.703Z,49.22
2023-01-09T21:26:27.453Z,49.18
2023-01-09T21:28:57.869Z,48.95
2023-01-09T21:31:35.661Z,48.95
2023-01-09T21:34:04.995Z,49.02
2023-01-09T21:36:33.822Z,48.93
2023-01-09T21:39:01.110Z,48.97
2023-01-09T21:41:46.694Z,48.96
2023-01-09T21:44:32.383Z,48.76
2023-01-09T21:47:00.569Z,48.60
2023-01-09T21:49:29.695Z,48.36
2023-01-09T21:51:56.794Z,48.37
2023-01-09T21:54:23.944Z,48.56
2023-01-09T21:56:54.685Z,48.44
2023-01-09T22:12:17.759Z,47.64
2023-01-09T22:14:44.612Z,46.87
2023-01-09T22:17:11.542Z,46.83
2023-01-09T22:19:38.489Z,46.85
2023-01-09T22:22:07.484Z,46.83
2023-01-09T22:24:34.581Z,46.79
2023-01-09T22:27:01.582Z,46.66
2023-01-09T22:29:28.518Z,46.79
2023-01-09T22:31:55.454Z,46.92
2023-01-09T22:34:22.615Z,47.17
2023-01-09T22:36:49.460Z,47.58
2023-01-09T22:39:17.717Z,47.74
2023-01-09T22:41:44.998Z,47.93
2023-01-09T22:44:12.249Z,47.90
2023-01-09T22:46:39.168Z,47.90
2023-01-09T22:49:06.030Z,48.00
2023-01-09T22:51:34.006Z,48.03
2023-01-09T22:54:00.961Z,48.04
2023-01-09T22:56:28.610Z,48.23
2023-01-09T22:58:55.963Z,48.11
2023-01-09T23:01:22.910Z,48.11
2023-01-09T23:03:49.863Z,48.35
2023-01-09T23:06:18.738Z,48.48
2023-01-09T23:08:46.224Z,48.59
2023-01-09T23:11:16.636Z,48.56
2023-01-09T23:13:43.578Z,48.33
2023-01-09T23:16:10.425Z,48.24
2023-01-09T23:18:37.247Z,48.23
2023-01-09T23:21:04.722Z,48.20
2023-01-09T23:23:32.316Z,48.31
2023-01-09T23:26:00.552Z,48.30
2023-01-09T23:28:27.731Z,48.41
2023-01-09T23:30:54.547Z,48.23
2023-01-09T23:33:21.642Z,48.20
2023-01-09T23:35:48.743Z,48.17
2023-01-09T23:38:15.793Z,48.20
2023-01-09T23:40:43.040Z,48.25
2023-01-09T23:44:27.730Z,48.82
2023-01-09T23:46:54.624Z,48.59
2023-01-09T23:49:21.568Z,48.60
2023-01-09T23:51:48.527Z,48.81
2023-01-09T23:54:17.921Z,48.61
2023-01-09T23:56:44.990Z,48.62
2023-01-09T23:59:12.307Z,48.55
